Time;durP1;ratioP1;P1;durP2;ratioP2;P2;SDS_P1;SDS_P2;PMS_P1;PMS_P2;Temp;Humidity;BMP_temperature;BMP_pressure;BME280_temperature;BME280_humidity;BME280_pressure;Samples;Min_cycle;Max_cycle;Signal;HPM_P1;HPM_P2
2023/04/19 00:01:17;;;;;;;;;;;;;;;25.02;48.01;96537.94;612084;231;66757;-61
2023/04/19 00:03:44;;;;;;;;;;;;;;;25.02;47.99;96542.52;612165;231;65014;-61
2023/04/19 00:06:13;;;;;;;;;;;;;;;25.02;48.41;96537.14;611951;231;66922;-61
2023/04/19 00:08:41;;;;;;;;;;;;;;;25.01;46.91;96535.54;611045;231;64400;-60
2023/04/19 00:11:08;;;;;;;;;;;;;;;25.00;46.76;96545.50;610989;232;65077;-60
2023/04/19 00:13:36;;;;;;;;;;;;;;;24.99;46.65;96529.67;611126;230;66931;-60
2023/04/19 00:16:04;;;;;;;;;;;;;;;24.99;45.91;96537.73;611319;231;66809;-60
2023/04/19 00:18:31;;;;;;;;;;;;;;;24.98;47.26;96531.57;612762;231;65058;-60
2023/04/19 00:20:59;;;;;;;;;;;;;;;24.97;47.17;96529.99;613076;230;66960;-60
2023/04/19 00:23:27;;;;;;;;;;;;;;;24.98;46.07;96534.26;611457;232;64189;-60
2023/04/19 00:25:54;;;;;;;;;;;;;;;24.97;46.24;96534.58;610974;231;62948;-60
2023/04/19 00:28:22;;;;;;;;;;;;;;;24.96;48.31;96528.42;611024;231;65214;-60
2023/04/19 00:30:49;;;;;;;;;;;;;;;24.96;48.46;96531.11;611621;231;66804;-60
2023/04/19 00:33:17;;;;;;;;;;;;;;;24.95;46.44;96526.03;613292;231;65774;-60
2023/04/19 00:35:44;;;;;;;;;;;;;;;24.94;47.90;96527.14;612484;231;66685;-60
2023/04/19 00:38:13;;;;;;;;;;;;;;;24.93;47.16;96520.95;611041;232;64353;-60
2023/04/19 00:40:42;;;;;;;;;;;;;;;24.92;47.27;96522.06;611468;232;43640;-60
2023/04/19 00:43:10;;;;;;;;;;;;;;;24.91;47.13;96515.11;611068;232;66570;-60
2023/04/19 00:45:37;;;;;;;;;;;;;;;24.92;48.78;96521.27;611519;231;66629;-60
2023/04/19 00:48:05;;;;;;;;;;;;;;;24.89;47.24;96517.30;611569;231;62916;-60
2023/04/19 00:50:34;;;;;;;;;;;;;;;24.90;46.56;96518.09;611539;231;67577;-60
2023/04/19 00:53:02;;;;;;;;;;;;;;;24.89;46.80;96519.99;611301;232;66547;-60
2023/04/19 00:55:30;;;;;;;;;;;;;;;24.89;47.54;96521.89;611163;231;63927;-60
2023/04/19 00:57:58;;;;;;;;;;;;;;;24.87;47.18;96519.50;611014;231;65874;-61
2023/04/19 01:00:26;;;;;;;;;;;;;;;24.87;48.91;96526.77;611034;232;65425;-61
2023/04/19 01:02:54;;;;;;;;;;;;;;;24.85;47.87;96527.06;613341;230;63116;-60
2023/04/19 01:05:22;;;;;;;;;;;;;;;24.86;48.34;96525.98;611198;231;66910;-60
2023/04/19 01:07:50;;;;;;;;;;;;;;;24.85;47.54;96515.53;611300;232;66630;-60
2023/04/19 01:10:18;;;;;;;;;;;;;;;24.85;47.93;96512.84;611349;232;62728;-61
2023/04/19 01:12:45;;;;;;;;;;;;;;;24.84;47.07;96513.95;611154;232;64738;-60
2023/04/19 01:15:13;;;;;;;;;;;;;;;24.84;47.65;96513.95;611671;231;64649;-62
2023/04/19 01:17:41;;;;;;;;;;;;;;;24.81;47.53;96510.77;611737;231;66249;-60
2023/04/19 01:20:09;;;;;;;;;;;;;;;24.82;48.93;96514.25;611381;231;66798;-60
2023/04/19 01:22:37;;;;;;;;;;;;;;;24.82;47.72;96506.19;611674;231;64670;-60
2023/04/19 01:25:06;;;;;;;;;;;;;;;24.81;48.29;96507.30;611068;232;66041;-61
2023/04/19 01:27:34;;;;;;;;;;;;;;;24.80;47.77;96506.51;611483;230;66860;-60
2023/04/19 01:30:02;;;;;;;;;;;;;;;24.79;47.17;96510.28;611108;231;64698;-60
2023/04/19 01:32:29;;;;;;;;;;;;;;;24.78;47.94;96503.33;611008;231;62979;-60
2023/04/19 01:34:57;;;;;;;;;;;;;;;24.78;47.51;96507.92;611113;231;66985;-60
2023/04/19 01:37:24;;;;;;;;;;;;;;;24.78;47.58;96499.85;611365;231;64163;-60
2023/04/19 01:39:52;;;;;;;;;;;;;;;24.77;47.47;96498.25;611658;231;62828;-60
2023/04/19 01:42:19;;;;;;;;;;;;;;;24.77;47.84;96503.63;611704;231;64696;-60
2023/04/19 01:44:47;;;;;;;;;;;;;;;24.76;49.53;96497.46;611603;231;65522;-60
2023/04/19 01:47:14;;;;;;;;;;;;;;;24.76;48.28;96504.73;611529;230;62924;-60
2023/04/19 01:49:42;;;;;;;;;;;;;;;24.75;49.26;96498.58;613365;231;65636;-60
2023/04/19 01:52:10;;;;;;;;;;;;;;;24.75;48.68;96495.89;611926;231;67512;-60
2023/04/19 01:54:37;;;;;;;;;;;;;;;24.74;47.97;96496.18;611092;231;63857;-59
2023/04/19 01:57:05;;;;;;;;;;;;;;;24.72;48.36;96493.81;609627;231;66861;-60
2023/04/19 01:59:32;;;;;;;;;;;;;;;24.72;47.41;96483.07;611745;231;66762;-60
2023/04/19 02:02:00;;;;;;;;;;;;;;;24.72;48.88;96480.38;611162;231;63827;-60
2023/04/19 02:04:27;;;;;;;;;;;;;;;24.71;48.35;96484.16;611061;231;66775;-60
2023/04/19 02:06:55;;;;;;;;;;;;;;;24.71;47.46;96483.36;611207;231;67570;-60
2023/04/19 02:09:22;;;;;;;;;;;;;;;24.71;47.95;96488.73;612776;231;64982;-59
2023/04/19 02:11:50;;;;;;;;;;;;;;;24.70;47.60;96484.48;611882;231;67300;-60
2023/04/19 02:14:17;;;;;;;;;;;;;;;24.69;49.53;96481.00;610946;230;66618;-59
2023/04/19 02:16:45;;;;;;;;;;;;;;;24.69;48.75;96482.88;611025;231;62685;-60
2023/04/19 02:19:12;;;;;;;;;;;;;;;24.68;49.59;96487.45;612339;231;64776;-60
2023/04/19 02:21:40;;;;;;;;;;;;;;;24.67;47.25;96482.41;610565;231;66695;-60
2023/04/19 02:24:07;;;;;;;;;;;;;;;24.68;48.65;96483.98;611475;231;62749;-60
2023/04/19 02:26:35;;;;;;;;;;;;;;;24.66;47.99;96484.28;611115;232;66880;-61
2023/04/19 02:29:05;;;;;;;;;;;;;;;24.65;48.11;96482.70;608383;231;64189;-60
2023/04/19 02:31:32;;;;;;;;;;;;;;;24.65;48.50;96484.60;613223;231;64948;-60
2023/04/19 02:34:00;;;;;;;;;;;;;;;24.65;49.22;96481.92;612030;231;67020;-60
2023/04/19 02:36:27;;;;;;;;;;;;;;;24.63;47.34;96476.84;611888;231;64406;-60
2023/04/19 02:38:55;;;;;;;;;;;;;;;24.63;48.20;96484.11;611058;231;65203;-60
2023/04/19 02:41:22;;;;;;;;;;;;;;;24.63;50.37;96484.11;610508;231;64653;-60
2023/04/19 02:43:50;;;;;;;;;;;;;;;24.61;46.96;96481.75;610353;232;64828;-60
2023/04/19 02:46:17;;;;;;;;;;;;;;;24.62;49.74;96482.53;610022;232;62973;-60
2023/04/19 02:48:45;;;;;;;;;;;;;;;24.61;49.83;96478.24;610285;232;67971;-60
2023/04/19 02:51:16;;;;;;;;;;;;;;;24.59;47.99;96481.25;610296;232;66545;-60
2023/04/19 02:53:44;;;;;;;;;;;;;;;24.59;48.94;96470.51;609953;231;65146;-60
2023/04/19 02:56:11;;;;;;;;;;;;;;;24.58;48.04;96477.78;609988;232;66932;-59
2023/04/19 02:58:39;;;;;;;;;;;;;;;24.58;49.36;96471.59;611230;231;67663;-59
2023/04/19 03:01:06;;;;;;;;;;;;;;;24.57;49.56;96470.80;610414;230;63801;-60
2023/04/19 03:03:34;;;;;;;;;;;;;;;24.56;48.80;96479.97;614986;230;64652;-59
2023/04/19 03:06:02;;;;;;;;;;;;;;;24.56;48.75;96471.91;612416;231;66927;-59
2023/04/19 03:08:30;;;;;;;;;;;;;;;24.56;48.16;96469.22;611557;232;62971;-59
2023/04/19 03:10:58;;;;;;;;;;;;;;;24.55;49.65;96470.34;611532;232;65353;-59
2023/04/19 03:13:25;;;;;;;;;;;;;;;24.55;50.36;96474.89;611206;231;66935;-59
2023/04/19 03:15:53;;;;;;;;;;;;;;;24.53;48.99;96479.80;611272;232;62795;-59
2023/04/19 03:18:22;;;;;;;;;;;;;;;24.53;49.02;96472.53;611178;231;67226;-60
2023/04/19 03:20:50;;;;;;;;;;;;;;;24.52;47.16;96467.45;611216;231;64773;-59
2023/04/19 03:23:17;;;;;;;;;;;;;;;24.52;48.95;96470.92;611818;231;64551;-59
2023/04/19 03:25:46;;;;;;;;;;;;;;;24.51;48.63;96469.34;611370;231;67914;-59
2023/04/19 03:28:15;;;;;;;;;;;;;;;24.51;49.61;96474.72;611050;232;44180;-60
2023/04/19 03:31:01;;;;;;;;;;;;;;;24.50;50.12;96473.14;613667;230;37149;-60
2023/04/19 03:33:28;;;;;;;;;;;;;;;24.49;48.71;96466.17;612350;231;66751;-59
2023/04/19 03:35:56;;;;;;;;;;;;;;;24.49;50.96;96468.86;611416;231;63871;-59
2023/04/19 03:38:24;;;;;;;;;;;;;;;24.48;48.49;96472.66;611022;231;64909;-60
2023/04/19 03:40:52;;;;;;;;;;;;;;;24.47;48.08;96468.39;611074;231;64796;-59
2023/04/19 03:43:21;;;;;;;;;;;;;;;24.48;49.07;96469.97;611299;231;67206;-60
2023/04/19 03:45:48;;;;;;;;;;;;;;;24.47;49.96;96472.95;611635;231;63627;-62
2023/04/19 03:48:16;;;;;;;;;;;;;;;24.45;48.74;96470.58;611093;231;64302;-60
2023/04/19 03:50:44;;;;;;;;;;;;;;;24.46;50.35;96469.47;611420;231;67453;-62
2023/04/19 03:53:13;;;;;;;;;;;;;;;24.46;48.44;96471.37;611067;231;64939;-61
2023/04/19 03:55:40;;;;;;;;;;;;;;;24.44;47.82;96471.66;611214;232;64520;-61
2023/04/19 03:58:08;;;;;;;;;;;;;;;24.44;49.62;96471.66;611540;232;66934;-60
2023/04/19 04:00:38;;;;;;;;;;;;;;;24.43;48.38;96478.11;612443;231;42942;-60
2023/04/19 04:03:05;;;;;;;;;;;;;;;24.42;49.58;96471.17;611612;231;64624;-60
2023/04/19 04:05:34;;;;;;;;;;;;;;;24.43;48.93;96477.33;611084;231;67057;-60
2023/04/19 04:08:02;;;;;;;;;;;;;;;24.42;49.49;96475.72;611062;231;62695;-60
2023/04/19 04:10:31;;;;;;;;;;;;;;;24.41;49.10;96482.98;610979;232;67698;-60
2023/04/19 04:13:01;;;;;;;;;;;;;;;24.41;49.97;96485.67;611971;231;64560;-60
2023/04/19 04:15:30;;;;;;;;;;;;;;;24.40;49.79;96484.10;611212;231;42594;-61
2023/04/19 04:17:58;;;;;;;;;;;;;;;24.40;50.14;96486.78;611041;231;67499;-60
2023/04/19 04:20:26;;;;;;;;;;;;;;;24.39;49.45;96487.89;612378;231;66812;-60
2023/04/19 04:22:55;;;;;;;;;;;;;;;24.38;48.80;96487.08;611025;231;42476;-60
2023/04/19 04:25:23;;;;;;;;;;;;;;;24.38;49.19;96488.98;610976;231;65538;-61
2023/04/19 04:27:51;;;;;;;;;;;;;;;24.38;49.62;96492.45;611093;231;66899;-60
2023/04/19 04:30:20;;;;;;;;;;;;;;;24.37;48.48;96487.40;611017;231;65200;-60
2023/04/19 04:32:50;;;;;;;;;;;;;;;24.39;50.65;96493.27;611117;231;66376;-61
2023/04/19 04:35:17;;;;;;;;;;;;;;;24.37;49.53;96496.25;612399;231;64069;-61
2023/04/19 04:37:55;;;;;;;;;;;;;;;24.37;50.47;96496.25;611173;231;42638;-61
2023/04/19 04:40:23;;;;;;;;;;;;;;;24.38;48.68;96497.03;611179;231;67724;-61
2023/04/19 04:42:53;;;;;;;;;;;;;;;24.39;47.19;96501.33;611070;231;66404;-60
2023/04/19 04:45:20;;;;;;;;;;;;;;;24.39;46.19;96495.95;610761;231;65692;-61
2023/04/19 04:47:50;;;;;;;;;;;;;;;24.38;48.74;96491.66;611368;231;44432;-61
2023/04/19 04:50:17;;;;;;;;;;;;;;;24.39;47.45;96501.33;611169;231;66557;-61
2023/04/19 04:52:45;;;;;;;;;;;;;;;24.40;48.87;96502.11;611888;231;65686;-60
2023/04/19 04:55:15;;;;;;;;;;;;;;;24.41;49.20;96501.79;610864;231;48197;-60
2023/04/19 04:57:43;;;;;;;;;;;;;;;24.41;49.12;96507.16;611297;231;67298;-61
2023/04/19 05:00:13;;;;;;;;;;;;;;;24.42;50.06;96508.77;611105;231;41621;-61
2023/04/19 05:02:42;;;;;;;;;;;;;;;24.43;48.85;96504.19;610689;232;45561;-60
2023/04/19 05:05:13;;;;;;;;;;;;;;;24.43;49.27;96504.19;612216;231;67210;-60
2023/04/19 05:07:40;;;;;;;;;;;;;;;24.44;48.75;96503.10;611359;232;62807;-60
2023/04/19 05:10:08;;;;;;;;;;;;;;;24.45;51.63;96502.81;611083;231;67012;-60
2023/04/19 05:12:37;;;;;;;;;;;;;;;24.46;49.21;96503.59;610878;231;45438;-61
2023/04/19 05:15:06;;;;;;;;;;;;;;;24.46;49.19;96504.39;611140;230;63569;-61
2023/04/19 05:17:34;;;;;;;;;;;;;;;24.47;49.71;96505.17;611017;231;67678;-60
2023/04/19 05:20:02;;;;;;;;;;;;;;;24.48;48.73;96501.41;611094;231;66539;-62
2023/04/19 05:22:31;;;;;;;;;;;;;;;24.48;51.35;96510.25;611961;231;63692;-60
2023/04/19 05:24:59;;;;;;;;;;;;;;;24.50;49.50;96505.38;611020;231;66317;-60
2023/04/19 05:27:27;;;;;;;;;;;;;;;24.50;50.79;96505.38;605674;230;68302;-61
2023/04/19 05:29:55;;;;;;;;;;;;;;;24.52;49.13;96505.84;610508;231;65760;-61
2023/04/19 05:32:22;;;;;;;;;;;;;;;24.52;50.22;96513.11;611434;231;67424;-61
2023/04/19 05:34:53;;;;;;;;;;;;;;;24.53;49.47;96509.34;612582;231;44019;-60
2023/04/19 05:37:29;;;;;;;;;;;;;;;24.55;50.47;96507.12;611120;232;65190;-61
2023/04/19 05:39:52;;;;;;;;;;;;;;;24.56;50.52;96508.73;611040;231;64823;-61
2023/04/19 05:42:19;;;;;;;;;;;;;;;24.57;49.43;96515.68;611931;230;64542;-61
2023/04/19 05:44:47;;;;;;;;;;;;;;;24.57;51.78;96516.47;611052;231;62675;-60
2023/04/19 05:47:16;;;;;;;;;;;;;;;24.58;47.78;96512.70;611845;231;67359;-61
2023/04/19 05:49:48;;;;;;;;;;;;;;;24.58;51.36;96518.08;611405;231;45539;-61
2023/04/19 05:52:24;;;;;;;;;;;;;;;24.59;50.65;96518.86;610961;231;42533;-62
2023/04/19 05:54:53;;;;;;;;;;;;;;;24.60;49.63;96520.44;610941;231;45011;-59
2023/04/19 05:57:20;;;;;;;;;;;;;;;24.61;49.02;96521.23;611410;231;66946;-59
2023/04/19 05:59:48;;;;;;;;;;;;;;;24.62;50.62;96523.63;612333;231;65401;-59
2023/04/19 06:02:17;;;;;;;;;;;;;;;24.64;49.03;96523.33;611203;231;44231;-59
2023/04/19 06:04:45;;;;;;;;;;;;;;;24.63;49.72;96530.57;611055;231;66851;-60
2023/04/19 06:07:13;;;;;;;;;;;;;;;24.65;48.48;96522.22;611786;230;65996;-59
2023/04/19 06:09:40;;;;;;;;;;;;;;;24.65;52.28;96524.91;611582;231;64731;-59
2023/04/19 06:12:08;;;;;;;;;;;;;;;24.65;47.78;96522.22;612608;231;67564;-59
2023/04/19 06:14:37;;;;;;;;;;;;;;;24.67;49.60;96534.25;614198;229;43773;-59
2023/04/19 06:17:05;;;;;;;;;;;;;;;24.68;52.07;96526.97;611221;230;66920;-58
2023/04/19 06:19:32;;;;;;;;;;;;;;;24.68;49.40;96524.28;611812;231;66718;-61
2023/04/19 06:22:00;;;;;;;;;;;;;;;24.68;48.96;96524.28;612446;231;63800;-59
2023/04/19 06:24:27;;;;;;;;;;;;;;;24.70;49.40;96524.78;612368;231;64480;-61
2023/04/19 06:26:55;;;;;;;;;;;;;;;24.71;47.75;96521.77;611707;230;64794;-59
2023/04/19 06:29:23;;;;;;;;;;;;;;;24.72;48.80;96530.65;611831;231;65166;-59
2023/04/19 06:31:51;;;;;;;;;;;;;;;24.73;51.81;96524.95;611293;231;67022;-60
2023/04/19 06:34:18;;;;;;;;;;;;;;;24.74;49.29;96526.53;611313;232;66509;-59
2023/04/19 06:36:45;;;;;;;;;;;;;;;24.76;49.80;96539.67;612223;231;62917;-59
2023/04/19 06:39:14;;;;;;;;;;;;;;;24.75;50.07;96535.41;613741;231;66954;-60
2023/04/19 06:41:43;;;;;;;;;;;;;;;24.76;48.62;96534.30;612662;231;67064;-60
2023/04/19 06:44:12;;;;;;;;;;;;;;;24.77;49.06;96539.38;611545;230;40129;-60
2023/04/19 06:46:39;;;;;;;;;;;;;;;24.78;48.83;96542.85;611383;231;66638;-61
2023/04/19 06:49:07;;;;;;;;;;;;;;;24.78;48.02;96535.58;611482;230;64629;-59
2023/04/19 06:51:34;;;;;;;;;;;;;;;24.79;51.39;96542.53;611694;232;62969;-59
2023/04/19 06:54:02;;;;;;;;;;;;;;;24.79;49.00;96544.42;611954;230;65441;-60
2023/04/19 06:56:41;;;;;;;;;;;;;;;24.83;47.52;96539.22;611488;230;64691;-58
2023/04/19 06:59:08;;;;;;;;;;;;;;;24.82;48.31;96535.75;614348;230;61199;-60
2023/04/19 07:01:36;;;;;;;;;;;;;;;24.83;48.69;96550.79;612970;230;66808;-58
2023/04/19 07:04:03;;;;;;;;;;;;;;;24.83;49.60;96549.97;612147;231;66827;-58
2023/04/19 07:06:31;;;;;;;;;;;;;;;24.85;49.71;96548.56;612106;231;65118;-58
2023/04/19 07:08:58;;;;;;;;;;;;;;;24.84;50.59;96555.05;612309;231;64938;-58
2023/04/19 07:11:26;;;;;;;;;;;;;;;24.84;49.81;96552.37;611369;230;64636;-58
2023/04/19 07:13:53;;;;;;;;;;;;;;;24.85;49.10;96551.25;611325;232;65034;-58
2023/04/19 07:16:21;;;;;;;;;;;;;;;24.88;49.32;96547.16;611248;231;66905;-58
2023/04/19 07:18:48;;;;;;;;;;;;;;;24.87;48.13;96554.44;614594;230;66893;-58
2023/04/19 07:21:15;;;;;;;;;;;;;;;24.89;49.51;96559.52;611810;231;65112;-59
2023/04/19 07:23:43;;;;;;;;;;;;;;;24.88;47.93;96558.73;612662;231;64740;-58
2023/04/19 07:26:10;;;;;;;;;;;;;;;24.90;49.93;96553.03;611586;230;66861;-59
2023/04/19 07:28:39;;;;;;;;;;;;;;;24.90;49.42;96559.20;611389;232;62872;-60
2023/04/19 07:31:06;;;;;;;;;;;;;;;24.91;48.34;96551.92;613992;230;66944;-59
2023/04/19 07:33:34;;;;;;;;;;;;;;;24.91;47.76;96552.73;611433;232;66836;-59
2023/04/19 07:36:02;;;;;;;;;;;;;;;24.94;48.70;96548.64;611633;231;65099;-59
2023/04/19 07:38:30;;;;;;;;;;;;;;;24.96;49.87;96557.98;612872;231;67027;-59
2023/04/19 07:40:57;;;;;;;;;;;;;;;24.96;49.23;96560.67;611622;231;66784;-59
2023/04/19 07:43:25;;;;;;;;;;;;;;;24.97;51.60;96556.87;611855;232;65045;-59
2023/04/19 07:45:53;;;;;;;;;;;;;;;24.97;50.16;96556.87;611934;232;66852;-59
2023/04/19 07:48:23;;;;;;;;;;;;;;;24.98;51.31;96560.35;612938;231;64361;-59
2023/04/19 07:50:51;;;;;;;;;;;;;;;24.98;50.43;96557.66;613790;227;62902;-59
2023/04/19 07:53:18;;;;;;;;;;;;;;;24.97;49.47;96561.47;611395;231;66979;-60
2023/04/19 07:55:46;;;;;;;;;;;;;;;24.97;50.42;96556.87;611863;231;67001;-59
2023/04/19 07:58:13;;;;;;;;;;;;;;;24.97;49.09;96556.87;611691;230;64901;-59
2023/04/19 08:00:41;;;;;;;;;;;;;;;24.98;49.86;96555.77;611268;232;66984;-59
2023/04/19 08:03:08;;;;;;;;;;;;;;;25.00;50.89;96558.16;613505;230;66680;-59
2023/04/19 08:05:36;;;;;;;;;;;;;;;25.00;50.79;96558.95;612958;231;65028;-58
2023/04/19 08:08:03;;;;;;;;;;;;;;;24.99;49.14;96553.86;611622;230;64386;-58
2023/04/19 08:10:31;;;;;;;;;;;;;;;25.00;49.98;96556.26;611551;230;64605;-59
2023/04/19 08:12:58;;;;;;;;;;;;;;;25.00;49.08;96556.26;611601;230;65089;-59
2023/04/19 08:15:26;;;;;;;;;;;;;;;25.01;50.46;96559.73;612728;231;66632;-59
2023/04/19 08:17:53;;;;;;;;;;;;;;;25.00;50.55;96550.88;611306;231;66822;-59
2023/04/19 08:20:21;;;;;;;;;;;;;;;25.01;48.25;96557.83;611721;231;65099;-59
2023/04/19 08:22:48;;;;;;;;;;;;;;;25.01;48.52;96560.52;611478;231;67148;-59
2023/04/19 08:25:16;;;;;;;;;;;;;;;25.02;49.96;96548.69;611371;232;66893;-59
2023/04/19 08:27:43;;;;;;;;;;;;;;;25.03;50.60;96555.64;611325;230;65344;-58
2023/04/19 08:30:11;;;;;;;;;;;;;;;25.03;49.42;96550.27;611753;231;64722;-58
2023/04/19 08:32:39;;;;;;;;;;;;;;;25.03;50.69;96550.27;611486;232;66879;-58
2023/04/19 08:35:08;;;;;;;;;;;;;;;25.05;48.85;96559.94;613797;230;63129;-61
2023/04/19 08:37:35;;;;;;;;;;;;;;;25.06;50.17;96548.06;613557;230;66646;-60
2023/04/19 08:40:03;;;;;;;;;;;;;;;25.06;50.93;96548.06;611468;230;66397;-59
2023/04/19 08:42:32;;;;;;;;;;;;;;;25.06;49.67;96551.54;611792;230;63080;-60
2023/04/19 08:45:07;;;;;;;;;;;;;;;25.07;49.70;96545.05;611350;232;66818;-60
2023/04/19 08:47:34;;;;;;;;;;;;;;;25.07;50.62;96544.27;612748;230;63983;-59
2023/04/19 08:50:02;;;;;;;;;;;;;;;25.07;47.97;96541.58;612571;231;65064;-59
2023/04/19 08:52:30;;;;;;;;;;;;;;;25.08;50.44;96541.28;611558;230;66700;-62
2023/04/19 08:54:57;;;;;;;;;;;;;;;25.08;50.03;96545.88;611862;231;66604;-62
2023/04/19 08:57:25;;;;;;;;;;;;;;;25.08;49.33;96537.80;611344;231;65111;-60
2023/04/19 08:59:54;;;;;;;;;;;;;;;25.10;51.24;96533.70;611616;230;66653;-60
2023/04/19 09:02:22;;;;;;;;;;;;;;;25.12;48.34;96530.69;612431;231;64473;-60
2023/04/19 09:04:49;;;;;;;;;;;;;;;25.12;49.52;96534.17;614014;230;62933;-59
2023/04/19 09:07:24;;;;;;;;;;;;;;;25.14;48.81;96536.56;611637;230;64708;-60
2023/04/19 09:10:06;;;;;;;;;;;;;;;25.14;50.08;96534.66;611558;231;64961;-61
2023/04/19 09:12:35;;;;;;;;;;;;;;;25.15;50.34;96536.27;610907;232;66089;-59
2023/04/19 09:15:03;;;;;;;;;;;;;;;25.16;51.04;96531.70;611328;232;64758;-59
2023/04/19 09:17:31;;;;;;;;;;;;;;;25.16;47.66;96531.70;611752;231;64782;-61
2023/04/19 09:19:59;;;;;;;;;;;;;;;25.16;50.90;96537.08;611638;232;65140;-60
2023/04/19 09:22:26;;;;;;;;;;;;;;;25.16;48.79;96539.77;611958;231;66902;-59
2023/04/19 09:24:54;;;;;;;;;;;;;;;25.16;50.63;96540.56;611819;232;66796;-59
2023/04/19 09:27:32;;;;;;;;;;;;;;;25.16;47.78;96537.87;611496;232;65175;-60
2023/04/19 09:30:00;;;;;;;;;;;;;;;25.16;49.36;96537.08;611774;230;66969;-60
2023/04/19 09:32:28;;;;;;;;;;;;;;;25.15;48.71;96538.16;612020;230;64736;-61
2023/04/19 09:35:00;;;;;;;;;;;;;;;25.15;48.24;96538.16;611375;232;62836;-60
2023/04/19 09:37:28;;;;;;;;;;;;;;;25.14;48.90;96536.56;611980;230;67196;-61
2023/04/19 09:39:55;;;;;;;;;;;;;;;25.14;48.27;96544.62;613082;231;66594;-59
2023/04/19 09:42:23;;;;;;;;;;;;;;;25.14;49.25;96540.03;612091;230;63022;-59
2023/04/19 09:44:57;;;;;;;;;;;;;;;25.13;49.43;96534.98;611914;230;66624;-60
2023/04/19 09:47:25;;;;;;;;;;;;;;;25.13;46.25;96533.08;611356;232;66924;-60
2023/04/19 09:50:05;;;;;;;;;;;;;;;25.16;48.40;96531.70;611372;230;64958;-60
2023/04/19 09:52:33;;;;;;;;;;;;;;;25.15;48.41;96530.89;611370;230;67011;-58
2023/04/19 09:55:07;;;;;;;;;;;;;;;25.15;47.87;96528.20;611258;232;64654;-59
2023/04/19 09:57:32;;;;;;;;;;;;;;;25.15;49.84;96530.09;611463;230;65080;-59
2023/04/19 10:00:01;;;;;;;;;;;;;;;25.15;49.15;96530.09;611291;232;66852;-59
2023/04/19 10:02:36;;;;;;;;;;;;;;;25.14;48.32;96520.42;611003;231;45455;-58
2023/04/19 10:05:00;;;;;;;;;;;;;;;25.15;49.94;96522.03;611542;231;66169;-60
2023/04/19 10:07:29;;;;;;;;;;;;;;;25.13;49.61;96519.64;611409;232;66911;-60
2023/04/19 10:09:58;;;;;;;;;;;;;;;25.12;49.51;96515.34;611586;232;65491;-61
2023/04/19 10:12:26;;;;;;;;;;;;;;;25.13;49.33;96516.95;612561;230;62912;-61
2023/04/19 10:14:56;;;;;;;;;;;;;;;25.13;48.49;96513.48;612090;231;64599;-61
2023/04/19 10:17:24;;;;;;;;;;;;;;;25.13;49.85;96514.27;611691;230;64120;-61
2023/04/19 10:19:53;;;;;;;;;;;;;;;25.13;49.06;96516.16;611915;231;64879;-61
2023/04/19 10:22:21;;;;;;;;;;;;;;;25.13;50.11;96510.78;611251;232;65524;-60
2023/04/19 10:24:50;;;;;;;;;;;;;;;25.12;49.57;96514.56;611341;230;64785;-61
2023/04/19 10:27:19;;;;;;;;;;;;;;;25.12;49.89;96512.66;604824;231;62926;-60
2023/04/19 10:29:57;;;;;;;;;;;;;;;25.12;50.25;96506.49;612110;231;66987;-61
2023/04/19 10:32:29;;;;;;;;;;;;;;;25.12;48.20;96501.11;612688;231;66955;-61
2023/04/19 10:35:03;;;;;;;;;;;;;;;25.12;49.82;96499.21;611547;231;65279;-62
2023/04/19 10:37:31;;;;;;;;;;;;;;;25.13;49.32;96502.72;611235;230;64693;-61
2023/04/19 10:39:58;;;;;;;;;;;;;;;25.12;49.91;96499.21;611560;232;66820;-61
2023/04/19 10:42:27;;;;;;;;;;;;;;;25.12;48.95;96499.21;611536;232;64931;-62
2023/04/19 10:45:13;;;;;;;;;;;;;;;25.13;49.03;96500.03;611021;230;64211;-59
2023/04/19 10:47:41;;;;;;;;;;;;;;;25.13;48.23;96494.66;611340;232;64924;-61
2023/04/19 10:50:09;;;;;;;;;;;;;;;25.13;46.58;96487.37;611244;232;63040;-60
2023/04/19 10:52:40;;;;;;;;;;;;;;;25.14;49.71;96490.85;611359;230;67252;-60
2023/04/19 10:55:08;;;;;;;;;;;;;;;25.14;50.19;96488.95;611353;231;66807;-60
2023/04/19 10:57:57;;;;;;;;;;;;;;;25.16;49.94;96491.38;611674;230;65392;-60
2023/04/19 11:00:30;;;;;;;;;;;;;;;25.15;49.79;96487.08;611647;231;66843;-61
2023/04/19 11:02:58;;;;;;;;;;;;;;;25.17;49.85;96492.95;614125;230;48108;-60
2023/04/19 11:05:29;;;;;;;;;;;;;;;25.16;50.38;96491.38;611934;229;65067;-61
2023/04/19 11:08:00;;;;;;;;;;;;;;;25.16;49.23;96489.47;612381;230;47081;-61
2023/04/19 11:10:30;;;;;;;;;;;;;;;25.17;49.03;96490.26;611779;232;66675;-61
2023/04/19 11:13:00;;;;;;;;;;;;;;;25.17;48.16;96482.19;611968;230;65088;-60
2023/04/19 11:15:33;;;;;;;;;;;;;;;25.17;48.87;96484.88;611600;230;46746;-60
2023/04/19 11:18:04;;;;;;;;;;;;;;;25.18;50.80;96478.38;607126;231;66827;-60
2023/04/19 11:20:36;;;;;;;;;;;;;;;25.17;50.58;96474.13;610271;231;45413;-61
2023/04/19 11:23:03;;;;;;;;;;;;;;;25.18;50.51;96473.83;612951;230;66876;-60
2023/04/19 11:25:36;;;;;;;;;;;;;;;25.19;49.83;96477.30;614057;230;47392;-62
2023/04/19 11:28:03;;;;;;;;;;;;;;;25.19;49.41;96472.71;613851;230;62723;-61
2023/04/19 11:30:32;;;;;;;;;;;;;;;25.21;51.37;96475.10;611334;231;66837;-62
2023/04/19 11:32:59;;;;;;;;;;;;;;;25.23;50.06;96479.04;611897;230;64437;-61
2023/04/19 11:35:27;;;;;;;;;;;;;;;25.24;43.58;96482.55;611642;230;63054;-60
2023/04/19 11:37:56;;;;;;;;;;;;;;;25.26;43.59;96477.63;613566;230;66925;-62
2023/04/19 11:40:29;;;;;;;;;;;;;;;25.27;46.68;96479.23;611335;232;64899;-60
2023/04/19 11:42:54;;;;;;;;;;;;;;;25.26;48.05;96483.00;611158;230;62951;-60
2023/04/19 11:45:36;;;;;;;;;;;;;;;25.25;48.14;96479.52;611842;231;66878;-61
2023/04/19 11:48:08;;;;;;;;;;;;;;;25.28;45.86;96472.73;612012;231;66905;-61
2023/04/19 11:50:37;;;;;;;;;;;;;;;25.31;45.62;96477.48;611895;230;64748;-62
2023/04/19 11:53:15;;;;;;;;;;;;;;;25.32;45.81;96473.71;611659;230;66988;-62
2023/04/19 11:55:50;;;;;;;;;;;;;;;25.31;49.54;96472.11;611367;230;66881;-61
2023/04/19 11:58:25;;;;;;;;;;;;;;;25.30;49.90;96473.22;611267;230;66087;-62
2023/04/19 12:00:52;;;;;;;;;;;;;;;25.31;50.59;96469.42;611368;232;66836;-62
2023/04/19 12:03:23;;;;;;;;;;;;;;;25.29;44.20;96468.95;610564;231;66771;-61
2023/04/19 12:05:55;;;;;;;;;;;;;;;25.32;48.77;96462.13;610083;231;63163;-61
2023/04/19 12:08:32;;;;;;;;;;;;;;;25.32;48.25;96467.52;610910;231;67202;-61
2023/04/19 12:11:02;;;;;;;;;;;;;;;25.31;48.28;96458.66;610981;230;66847;-62
2023/04/19 12:13:30;;;;;;;;;;;;;;;25.31;48.95;96455.97;610984;232;65031;-58
2023/04/19 12:15:59;;;;;;;;;;;;;;;25.31;48.51;96450.59;611478;231;67074;-60
2023/04/19 12:18:26;;;;;;;;;;;;;;;25.30;48.17;96456.30;611501;231;66913;-60
2023/04/19 12:20:54;;;;;;;;;;;;;;;25.31;47.93;96452.49;611362;231;65029;-61
2023/04/19 12:23:21;;;;;;;;;;;;;;;25.30;47.64;96446.33;610880;231;67133;-61
2023/04/19 12:25:49;;;;;;;;;;;;;;;25.31;46.96;96444.42;611015;231;66887;-61
2023/04/19 12:28:18;;;;;;;;;;;;;;;25.30;45.50;96440.95;610876;231;63015;-61
2023/04/19 12:30:46;;;;;;;;;;;;;;;25.32;48.41;96433.37;610929;231;64608;-62
2023/04/19 12:33:13;;;;;;;;;;;;;;;25.31;48.14;96439.83;610890;231;64605;-60
2023/04/19 12:35:41;;;;;;;;;;;;;;;25.33;48.40;96434.16;611914;231;65005;-61
2023/04/19 12:38:09;;;;;;;;;;;;;;;25.31;47.71;96437.14;611725;230;64728;-61
2023/04/19 12:40:36;;;;;;;;;;;;;;;25.32;48.18;96427.17;611758;231;65420;-61
2023/04/19 12:43:06;;;;;;;;;;;;;;;25.32;47.39;96427.98;611145;230;65075;-61
2023/04/19 12:45:34;;;;;;;;;;;;;;;25.33;48.03;96413.42;611502;230;67027;-61
2023/04/19 12:48:01;;;;;;;;;;;;;;;25.33;47.35;96420.70;611009;231;66124;-61
2023/04/19 12:50:29;;;;;;;;;;;;;;;25.33;48.04;96426.87;614232;229;65110;-60
2023/04/19 12:52:56;;;;;;;;;;;;;;;25.33;47.94;96421.49;614670;230;66663;-61
2023/04/19 12:55:24;;;;;;;;;;;;;;;25.34;47.92;96420.38;616364;230;66818;-60